Time;durP1;ratioP1;P1;durP2;ratioP2;P2;SDS_P1;SDS_P2;PMS_P1;PMS_P2;Temp;Humidity;BMP_temperature;BMP_pressure;BME280_temperature;BME280_humidity;BME280_pressure;Samples;Min_cycle;Max_cycle;Signal;HPM_P1;HPM_P2
2023/08/09 00:00:07;;;;;;;3.33;1.45;;;;;;;22.41;67.95;100778.00;5014053;28;20042;-67
2023/08/09 00:02:35;;;;;;;3.40;1.10;;;;;;;22.44;65.76;100774.50;5013700;28;20065;-66
2023/08/09 00:05:04;;;;;;;1.13;0.98;;;;;;;22.44;65.57;100776.47;5013131;28;20061;-67
2023/08/09 00:07:32;;;;;;;1.55;1.17;;;;;;;22.39;65.75;100778.34;5013386;28;20053;-67
2023/08/09 00:10:00;;;;;;;2.13;0.90;;;;;;;22.44;65.58;100777.28;5013728;28;20062;-67
2023/08/09 00:12:28;;;;;;;2.28;0.82;;;;;;;22.43;66.90;100784.00;5013722;28;20489;-67
2023/08/09 00:14:56;;;;;;;2.17;1.20;;;;;;;22.38;67.22;100773.94;5013813;28;20048;-67
2023/08/09 00:17:25;;;;;;;2.83;1.33;;;;;;;22.27;66.77;100781.19;5013805;28;20042;-67
2023/08/09 00:19:53;;;;;;;1.67;1.00;;;;;;;22.35;67.70;100776.63;5013208;28;20058;-67
2023/08/09 00:22:21;;;;;;;2.10;1.00;;;;;;;22.35;66.23;100785.00;5013262;28;20073;-67
2023/08/09 00:24:49;;;;;;;1.92;0.80;;;;;;;22.33;65.92;100778.97;5013381;28;20401;-67
2023/08/09 00:27:17;;;;;;;1.13;1.02;;;;;;;22.24;65.23;100777.13;5011843;28;20065;-67
2023/08/09 00:29:45;;;;;;;1.80;1.10;;;;;;;22.23;65.28;100780.28;4995889;28;20072;-66
2023/08/09 00:32:13;;;;;;;2.65;1.25;;;;;;;22.17;65.14;100776.94;5012977;28;20049;-67
2023/08/09 00:34:41;;;;;;;0.80;0.80;;;;;;;22.07;65.96;100777.44;5012738;28;20061;-67
2023/08/09 00:37:09;;;;;;;1.33;1.00;;;;;;;22.02;65.14;100778.53;5013363;28;20046;-67
2023/08/09 00:39:37;;;;;;;1.75;1.05;;;;;;;22.02;66.75;100784.09;5013082;28;20071;-67
2023/08/09 00:42:05;;;;;;;0.85;0.85;;;;;;;22.00;66.00;100784.44;4995646;28;20062;-67
2023/08/09 00:44:33;;;;;;;1.15;0.80;;;;;;;21.98;65.79;100785.94;4995667;28;20046;-67
2023/08/09 00:47:01;;;;;;;1.23;1.00;;;;;;;21.89;65.64;100786.09;5013072;28;20046;-67
2023/08/09 00:49:30;;;;;;;2.25;0.95;;;;;;;21.84;68.10;100783.56;4995367;28;20041;-67
2023/08/09 00:51:58;;;;;;;0.75;0.75;;;;;;;21.77;66.95;100792.53;5012617;28;20054;-66
2023/08/09 00:54:27;;;;;;;3.08;0.95;;;;;;;21.82;67.60;100788.66;5003108;28;20509;-67
2023/08/09 00:56:55;;;;;;;0.80;0.80;;;;;;;21.82;67.91;100785.88;4993259;28;20058;-67
2023/08/09 00:59:23;;;;;;;1.13;0.75;;;;;;;21.79;67.20;100781.03;4975929;28;20052;-67
2023/08/09 01:01:51;;;;;;;3.42;0.80;;;;;;;21.68;67.55;100783.44;4974869;28;20050;-67
2023/08/09 01:04:19;;;;;;;4.15;0.90;;;;;;;21.62;67.11;100788.47;4993101;28;20058;-67
2023/08/09 01:07:14;;;;;;;1.13;1.00;;;;;;;21.54;67.18;100778.25;4993254;28;20058;-67
2023/08/09 01:10:07;;;;;;;1.35;0.82;;;;;;;21.66;67.99;100778.25;4992745;28;20070;-66
2023/08/09 01:12:41;;;;;;;3.13;1.20;;;;;;;21.67;66.71;100784.63;4983153;28;20061;-67
2023/08/09 01:15:12;;;;;;;1.45;1.00;;;;;;;21.64;67.86;100775.00;4975848;28;20049;-67
2023/08/09 01:17:41;;;;;;;1.02;0.90;;;;;;;21.67;68.57;100782.66;4992309;28;20054;-67
2023/08/09 01:20:13;;;;;;;2.47;1.25;;;;;;;21.61;67.37;100778.50;4992936;28;20038;-67
2023/08/09 01:22:48;;;;;;;1.58;1.17;;;;;;;21.61;67.61;100773.72;4992761;28;20677;-67
2023/08/09 01:25:16;;;;;;;1.65;0.93;;;;;;;21.59;68.79;100778.84;4992314;28;20378;-67
2023/08/09 01:27:44;;;;;;;1.65;1.08;;;;;;;21.58;67.16;100780.00;4992129;28;20481;-67
2023/08/09 01:30:13;;;;;;;0.90;0.80;;;;;;;21.69;67.90;100774.75;4992347;28;20513;-67
2023/08/09 01:32:41;;;;;;;1.60;1.00;;;;;;;21.62;67.00;100768.97;4992620;28;20057;-67
2023/08/09 01:35:10;;;;;;;4.03;1.38;;;;;;;21.62;66.54;100768.97;4993012;28;20057;-67
2023/08/09 01:37:52;;;;;;;1.08;1.00;;;;;;;21.63;67.73;100765.03;4992337;28;20050;-67
2023/08/09 01:40:21;;;;;;;2.25;0.88;;;;;;;21.60;67.83;100768.50;4991528;28;20053;-67
2023/08/09 01:42:51;;;;;;;3.25;1.38;;;;;;;21.60;67.80;100760.97;4992556;28;20050;-67
2023/08/09 01:45:21;;;;;;;1.25;0.88;;;;;;;21.59;66.54;100770.47;4992377;28;20057;-67
2023/08/09 01:47:49;;;;;;;2.22;1.10;;;;;;;21.54;67.18;100764.31;4991734;28;20057;-67
2023/08/09 01:50:26;;;;;;;0.93;0.80;;;;;;;21.52;66.46;100763.88;4992491;28;20756;-67
2023/08/09 01:52:55;;;;;;;2.45;1.00;;;;;;;21.55;65.23;100763.19;4992606;28;20058;-67
2023/08/09 01:55:25;;;;;;;1.23;0.80;;;;;;;21.49;66.81;100757.03;5006562;28;20405;-67
2023/08/09 01:57:54;;;;;;;1.27;1.08;;;;;;;21.58;67.91;100754.13;5012235;28;20042;-67
2023/08/09 02:00:22;;;;;;;1.95;1.25;;;;;;;21.55;65.84;100752.06;5010344;28;20050;-68
2023/08/09 02:02:52;;;;;;;1.13;1.02;;;;;;;21.53;66.32;100748.78;5012644;28;20054;-67
2023/08/09 02:05:22;;;;;;;1.05;1.00;;;;;;;21.50;64.99;100757.84;5015699;28;20057;-67
2023/08/09 02:07:50;;;;;;;0.70;0.70;;;;;;;21.46;65.55;100755.75;5015421;28;20397;-66
2023/08/09 02:10:19;;;;;;;1.83;1.05;;;;;;;21.53;66.49;100746.84;5015804;28;20472;-67
2023/08/09 02:12:48;;;;;;;1.63;0.90;;;;;;;21.56;66.48;100750.88;5015969;28;20049;-67
2023/08/09 02:15:18;;;;;;;4.13;1.00;;;;;;;21.52;69.36;100748.00;5015618;28;20054;-66
2023/08/09 02:17:48;;;;;;;5.70;1.33;;;;;;;21.50;75.64;100741.16;5016026;28;20061;-66
2023/08/09 02:20:19;;;;;;;4.60;1.33;;;;;;;21.35;75.84;100749.88;5015821;28;20045;-67
2023/08/09 02:22:48;;;;;;;3.50;1.20;;;;;;;21.26;78.64;100756.72;5015300;28;20401;-67
2023/08/09 02:25:17;;;;;;;3.45;1.48;;;;;;;21.15;79.80;100761.94;5015020;28;20502;-66
2023/08/09 02:27:46;;;;;;;6.35;1.52;;;;;;;21.00;79.88;100760.66;5014914;28;20500;-65
2023/08/09 02:30:15;;;;;;;3.65;1.25;;;;;;;20.93;78.37;100761.25;5015559;28;20057;-66
2023/08/09 02:32:43;;;;;;;1.38;1.10;;;;;;;20.95;77.31;100775.63;4996691;28;20061;-66
2023/08/09 02:35:11;;;;;;;1.08;0.90;;;;;;;20.94;72.47;100769.25;5003797;28;20054;-65
2023/08/09 02:37:39;;;;;;;1.13;0.93;;;;;;;20.99;75.17;100771.00;5015549;28;20405;-66
2023/08/09 02:40:10;;;;;;;0.85;0.85;;;;;;;21.04;71.25;100778.28;5014916;28;20053;-67
2023/08/09 02:42:39;;;;;;;1.17;1.10;;;;;;;21.11;74.68;100778.50;5015080;28;20049;-67
2023/08/09 02:45:10;;;;;;;1.38;1.08;;;;;;;21.07;71.74;100772.84;5013707;28;20129;-67
2023/08/09 02:47:38;;;;;;;2.08;1.08;;;;;;;21.04;75.26;100781.06;5015236;28;20049;-67
2023/08/09 02:50:07;;;;;;;3.72;1.23;;;;;;;21.08;72.66;100782.00;5015106;28;20397;-67
2023/08/09 02:52:35;;;;;;;1.63;1.30;;;;;;;21.08;73.07;100788.38;4997193;28;20088;-67
2023/08/09 02:55:06;;;;;;;2.50;1.17;;;;;;;21.00;70.65;100786.50;5014836;28;20205;-67
2023/08/09 02:57:34;;;;;;;1.77;1.17;;;;;;;20.92;70.19;100784.66;5013429;28;20050;-67
2023/08/09 03:00:03;;;;;;;4.50;1.30;;;;;;;20.95;70.92;100792.31;4997448;28;20050;-67
2023/08/09 03:02:32;;;;;;;2.72;1.27;;;;;;;20.95;73.50;100797.88;5014711;28;20057;-67
2023/08/09 03:05:03;;;;;;;1.70;1.00;;;;;;;20.97;72.15;100801.09;4997038;28;20057;-67
2023/08/09 03:07:32;;;;;;;1.85;0.80;;;;;;;20.98;72.62;100791.63;4996506;28;20053;-67
2023/08/09 03:10:01;;;;;;;3.58;1.40;;;;;;;20.94;73.86;100785.94;5013623;28;20429;-67
2023/08/09 03:12:30;;;;;;;2.55;1.00;;;;;;;20.84;74.06;100793.88;4996755;28;20065;-67
2023/08/09 03:14:58;;;;;;;3.92;0.93;;;;;;;20.81;75.33;100792.59;5014418;28;20054;-67
2023/08/09 03:17:26;;;;;;;2.22;1.00;;;;;;;20.76;75.13;100795.59;5012033;28;20065;-66
2023/08/09 03:19:53;;;;;;;6.32;1.42;;;;;;;20.72;74.38;100794.69;5013897;28;20057;-67
2023/08/09 03:22:23;;;;;;;5.35;1.60;;;;;;;20.70;76.44;100792.25;5014223;28;20060;-67
2023/08/09 03:24:52;;;;;;;3.28;1.38;;;;;;;20.62;74.38;100784.81;4996900;28;20058;-67
2023/08/09 03:27:20;;;;;;;4.10;1.35;;;;;;;20.62;75.07;100784.81;5013967;28;20405;-67
2023/08/09 03:29:48;;;;;;;3.13;1.05;;;;;;;20.72;74.01;100784.34;5014274;28;20053;-67
2023/08/09 03:32:16;;;;;;;2.50;1.33;;;;;;;20.73;72.99;100774.06;5014158;28;20058;-67
2023/08/09 03:34:45;;;;;;;2.42;1.13;;;;;;;20.74;76.32;100767.34;5012834;28;20049;-66
2023/08/09 03:37:13;;;;;;;1.80;1.05;;;;;;;20.77;77.22;100755.53;4996713;28;20057;-67
2023/08/09 03:39:41;;;;;;;1.15;0.90;;;;;;;20.82;74.63;100763.63;4996575;28;20057;-67
2023/08/09 03:42:09;;;;;;;4.05;1.23;;;;;;;20.85;75.66;100771.31;4995897;28;20054;-67
2023/08/09 03:44:37;;;;;;;2.08;1.10;;;;;;;20.79;74.38;100789.34;4996559;28;20058;-67
2023/08/09 03:47:05;;;;;;;1.15;0.90;;;;;;;20.77;72.01;100784.13;5013069;28;20425;-67
2023/08/09 03:49:33;;;;;;;2.42;0.93;;;;;;;20.86;72.61;100783.28;5012295;28;20054;-67
2023/08/09 03:52:02;;;;;;;2.33;1.10;;;;;;;20.92;73.03;100785.47;4995823;28;20053;-66
2023/08/09 03:54:30;;;;;;;2.55;1.00;;;;;;;20.98;72.20;100788.03;5013760;28;20045;-67
2023/08/09 03:56:57;;;;;;;3.38;1.27;;;;;;;21.03;73.89;100782.22;5012538;28;20045;-67
2023/08/09 03:59:27;;;;;;;3.08;1.02;;;;;;;21.00;74.02;100783.72;4996464;28;20152;-67
2023/08/09 04:01:55;;;;;;;1.52;1.00;;;;;;;21.01;75.76;100776.22;5013543;28;20402;-66
2023/08/09 04:04:23;;;;;;;3.28;1.30;;;;;;;21.03;74.47;100771.09;4995831;28;20057;-67
2023/08/09 04:06:51;;;;;;;2.03;1.30;;;;;;;21.08;72.82;100790.34;5011490;28;20404;-67
2023/08/09 04:09:19;;;;;;;1.48;1.00;;;;;;;21.11;73.78;100777.72;4995204;28;20054;-67
2023/08/09 04:11:47;;;;;;;1.08;0.98;;;;;;;21.10;73.21;100768.56;5013126;28;20175;-66
2023/08/09 04:14:15;;;;;;;1.48;1.38;;;;;;;21.10;72.82;100767.75;5011790;28;20084;-67
2023/08/09 04:16:43;;;;;;;2.75;1.75;;;;;;;21.10;72.78;100774.13;5013258;28;20050;-67
2023/08/09 04:19:11;;;;;;;3.03;1.40;;;;;;;21.00;73.38;100775.38;5011716;28;20405;-67
2023/08/09 04:21:39;;;;;;;2.45;1.50;;;;;;;20.99;74.36;100779.34;5012669;28;20053;-67
2023/08/09 04:24:09;;;;;;;5.70;1.67;;;;;;;20.98;76.41;100791.63;5013285;28;20409;-67
2023/08/09 04:26:37;;;;;;;2.03;1.40;;;;;;;20.78;75.92;100787.75;5012347;28;20057;-67
2023/08/09 04:29:07;;;;;;;3.80;1.38;;;;;;;20.83;75.96;100795.03;5011974;28;20057;-67
2023/08/09 04:31:35;;;;;;;4.20;1.65;;;;;;;20.80;75.07;100796.53;5012770;28;20049;-67
2023/08/09 04:34:03;;;;;;;2.72;1.40;;;;;;;20.81;79.13;100798.97;5012622;28;20054;-67
2023/08/09 04:36:31;;;;;;;1.50;1.40;;;;;;;20.80;74.71;100802.94;5013032;28;20046;-67
2023/08/09 04:38:59;;;;;;;2.65;1.23;;;;;;;20.77;74.07;100814.72;5012988;28;20571;-67
2023/08/09 04:41:27;;;;;;;4.22;1.30;;;;;;;20.79;77.38;100817.16;5012536;28;20193;-67
2023/08/09 04:43:55;;;;;;;3.85;1.27;;;;;;;20.84;74.85;100813.34;5011536;28;20378;-67
2023/08/09 04:46:23;;;;;;;3.13;1.27;;;;;;;20.79;74.81;100826.34;5012359;28;20054;-67
2023/08/09 04:48:51;;;;;;;1.52;1.13;;;;;;;20.86;73.91;100828.56;5012675;28;20053;-67
2023/08/09 04:51:19;;;;;;;2.80;1.25;;;;;;;20.81;72.84;100823.19;5012441;28;20049;-67
2023/08/09 04:53:47;;;;;;;2.00;1.27;;;;;;;20.82;72.66;100827.59;5011807;28;20054;-67
2023/08/09 04:56:15;;;;;;;3.40;1.20;;;;;;;20.80;72.98;100836.31;5012683;28;20405;-67
2023/08/09 04:58:43;;;;;;;2.08;1.27;;;;;;;20.85;73.54;100831.69;5012189;28;20057;-66
2023/08/09 05:01:11;;;;;;;3.35;1.30;;;;;;;20.86;73.01;100844.47;5012481;28;20050;-67
2023/08/09 05:03:39;;;;;;;2.78;1.20;;;;;;;20.91;72.26;100847.81;5012076;28;20122;-67
2023/08/09 05:06:08;;;;;;;2.13;1.50;;;;;;;20.89;71.49;100852.09;5012688;28;20070;-67
2023/08/09 05:08:36;;;;;;;2.35;1.20;;;;;;;20.91;70.39;100858.94;5012397;28;20065;-67
2023/08/09 05:11:04;;;;;;;3.17;1.63;;;;;;;20.82;71.17;100858.19;5012572;28;20049;-67
2023/08/09 05:13:32;;;;;;;2.60;1.88;;;;;;;20.77;73.36;100855.66;5012366;28;20054;-67
2023/08/09 05:16:00;;;;;;;2.53;1.90;;;;;;;20.88;72.55;100854.06;5012221;28;20046;-67
2023/08/09 05:18:28;;;;;;;5.00;1.70;;;;;;;20.87;72.96;100857.19;5012067;28;20058;-67
2023/08/09 05:20:58;;;;;;;3.08;1.60;;;;;;;20.80;73.51;100863.28;5012301;28;20058;-67
2023/08/09 05:23:25;;;;;;;7.43;2.33;;;;;;;20.86;73.78;100861.94;5012163;28;20046;-67
2023/08/09 05:25:54;;;;;;;2.00;1.55;;;;;;;21.07;75.83;100869.41;5012295;28;20058;-67
2023/08/09 05:28:22;;;;;;;3.80;1.40;;;;;;;21.12;75.46;100863.59;5012138;28;20065;-67
2023/08/09 05:30:50;;;;;;;0.90;0.80;;;;;;;21.06;71.64;100860.25;5012213;28;20056;-67
2023/08/09 05:33:17;;;;;;;4.40;1.20;;;;;;;21.10;71.56;100854.81;5012074;28;20405;-67
2023/08/09 05:35:45;;;;;;;1.23;1.10;;;;;;;21.19;71.38;100863.88;5012231;28;20485;-67
2023/08/09 05:38:13;;;;;;;2.85;1.10;;;;;;;21.33;71.28;100868.28;5009948;28;20493;-67
2023/08/09 05:40:41;;;;;;;1.98;1.05;;;;;;;21.39;72.38;100866.91;5012305;28;20048;-67
2023/08/09 05:43:09;;;;;;;2.38;1.38;;;;;;;21.52;74.25;100859.38;5011604;28;20046;-67
2023/08/09 05:45:37;;;;;;;1.88;1.00;;;;;;;21.64;73.40;100864.09;5011197;28;20045;-67
2023/08/09 05:48:06;;;;;;;2.35;1.50;;;;;;;21.61;71.53;100850.88;5012191;28;20046;-67
2023/08/09 05:50:33;;;;;;;3.20;1.30;;;;;;;21.66;70.94;100859.00;5011540;28;20057;-67
2023/08/09 05:53:02;;;;;;;2.95;1.40;;;;;;;21.79;70.78;100851.47;5011072;28;20057;-67
2023/08/09 05:55:29;;;;;;;1.90;1.10;;;;;;;21.88;72.22;100863.31;5011684;28;20061;-67
2023/08/09 05:57:57;;;;;;;1.20;1.10;;;;;;;22.06;72.27;100865.81;5011538;28;20064;-67
2023/08/09 06:00:26;;;;;;;2.42;1.15;;;;;;;22.22;71.56;100868.69;5010783;28;20428;-67
2023/08/09 06:02:54;;;;;;;5.65;1.50;;;;;;;22.23;70.98;100872.25;5010874;28;20492;-67
2023/08/09 06:05:23;;;;;;;3.55;1.13;;;;;;;22.43;73.67;100867.66;5012077;28;20068;-67
2023/08/09 06:07:52;;;;;;;2.15;1.70;;;;;;;22.53;73.00;100883.91;5011693;28;20126;-67
2023/08/09 06:10:21;;;;;;;1.92;1.20;;;;;;;22.54;72.19;100877.16;5011272;28;20065;-67
2023/08/09 06:13:06;;;;;;;5.90;1.40;;;;;;;22.50;72.65;100879.03;5010452;28;20050;-66
2023/08/09 06:15:34;;;;;;;2.83;1.45;;;;;;;22.31;70.05;100881.66;5011467;28;20052;-67
2023/08/09 06:18:03;;;;;;;4.10;1.48;;;;;;;22.37;72.14;100881.06;5010939;28;20048;-67
2023/08/09 06:20:31;;;;;;;2.72;1.35;;;;;;;22.43;73.42;100878.81;4994111;28;20057;-67
2023/08/09 06:22:59;;;;;;;2.30;1.40;;;;;;;22.47;73.64;100879.72;5011490;28;20054;-67
2023/08/09 06:25:27;;;;;;;2.65;1.52;;;;;;;22.53;72.82;100883.91;5011039;28;20516;-67
2023/08/09 06:27:57;;;;;;;2.25;1.17;;;;;;;22.59;71.39;100886.47;5011314;28;20046;-67
2023/08/09 06:30:25;;;;;;;3.10;1.40;;;;;;;22.71;72.78;100889.19;5011693;28;20038;-66
2023/08/09 06:32:53;;;;;;;1.42;0.93;;;;;;;22.75;72.29;100889.28;5011164;28;20112;-67
2023/08/09 06:35:21;;;;;;;2.83;1.08;;;;;;;22.70;73.71;100893.16;5011506;28;20053;-67
2023/08/09 06:37:50;;;;;;;1.63;1.13;;;;;;;22.72;71.23;100896.38;5011346;28;20045;-66
2023/08/09 06:40:22;;;;;;;3.53;1.50;;;;;;;22.76;70.79;100891.72;5011168;28;20508;-67
2023/08/09 06:42:51;;;;;;;2.38;1.40;;;;;;;22.80;71.69;100884.28;5011239;28;20390;-67
2023/08/09 06:45:23;;;;;;;3.60;1.52;;;;;;;22.85;72.08;100876.78;5009872;28;20061;-67
2023/08/09 06:47:51;;;;;;;3.92;1.30;;;;;;;22.93;71.06;100870.25;5011349;28;20066;-67
2023/08/09 06:50:19;;;;;;;4.53;1.50;;;;;;;22.97;69.05;100887.88;5014127;28;20433;-67
2023/08/09 06:52:47;;;;;;;4.20;2.17;;;;;;;23.18;69.44;100890.41;5014840;28;20054;-67
2023/08/09 06:55:15;;;;;;;6.07;1.58;;;;;;;23.35;69.05;100882.91;5014729;28;20046;-67
2023/08/09 06:57:43;;;;;;;2.08;1.45;;;;;;;23.43;68.45;100887.50;5014845;28;20058;-66
2023/08/09 07:00:16;;;;;;;1.75;1.30;;;;;;;23.64;67.47;100877.22;5014924;28;20053;-67
2023/08/09 07:02:50;;;;;;;3.88;1.73;;;;;;;23.75;64.82;100889.44;5014655;28;20050;-67
2023/08/09 07:05:21;;;;;;;;;;;;;;;23.83;63.31;100882.03;5014081;28;20061;-67
2023/08/09 07:07:54;;;;;;;2.38;1.08;;;;;;;24.01;63.57;100890.81;5014529;28;19922;-67
2023/08/09 07:10:26;;;;;;;2.70;1.20;;;;;;;24.18;62.91;100888.81;5014210;28;20062;-67
2023/08/09 07:12:54;;;;;;;2.90;1.38;;;;;;;24.24;62.19;100893.75;5013625;28;20408;-67
2023/08/09 07:15:23;;;;;;;1.67;1.10;;;;;;;24.26;62.62;100888.63;5013418;28;20474;-67
2023/08/09 07:17:51;;;;;;;3.28;1.40;;;;;;;24.54;64.04;100881.19;5014460;28;20038;-67
2023/08/09 07:20:19;;;;;;;3.90;1.55;;;;;;;24.61;61.96;100886.09;5014260;28;20050;-67
2023/08/09 07:22:47;;;;;;;2.47;1.63;;;;;;;24.91;60.77;100889.09;5013255;28;20058;-68
2023/08/09 07:25:16;;;;;;;1.65;1.45;;;;;;;24.58;60.00;100879.25;5014200;28;20054;-67
2023/08/09 07:27:47;;;;;;;3.72;1.45;;;;;;;24.64;62.01;100872.16;5014059;28;20054;-67
2023/08/09 07:30:16;;;;;;;4.00;1.63;;;;;;;25.04;62.24;100886.94;5014214;28;20045;-68
2023/08/09 07:32:44;;;;;;;3.17;1.20;;;;;;;25.30;61.29;100884.56;5014273;28;20064;-68
2023/08/09 07:35:16;;;;;;;2.22;1.45;;;;;;;25.23;62.61;100885.25;5013950;28;20397;-68
2023/08/09 07:37:45;;;;;;;2.70;1.13;;;;;;;25.60;59.35;100898.69;5013456;28;20081;-68
2023/08/09 07:40:14;;;;;;;2.60;1.00;;;;;;;26.11;59.22;100909.84;5013140;28;20054;-68
2023/08/09 07:42:43;;;;;;;5.22;1.52;;;;;;;25.97;58.41;100905.66;5014085;28;20057;-68
2023/08/09 07:45:11;;;;;;;1.50;1.25;;;;;;;25.76;58.58;100906.94;5013773;28;20053;-67
2023/08/09 07:47:40;;;;;;;4.65;1.38;;;;;;;25.75;60.04;100910.94;5013942;28;20038;-67
2023/08/09 07:50:09;;;;;;;2.00;1.10;;;;;;;25.57;60.25;100910.63;5013975;28;20053;-67
2023/08/09 07:52:37;;;;;;;3.05;1.15;;;;;;;25.64;59.81;100915.56;5013699;28;20046;-67
2023/08/09 07:55:05;;;;;;;5.47;1.42;;;;;;;25.83;59.45;100913.84;5013129;28;20054;-67
2023/08/09 07:57:33;;;;;;;3.67;1.00;;;;;;;26.24;59.18;100904.84;5013861;28;20053;-67
2023/08/09 08:00:17;;;;;;;3.03;1.25;;;;;;;26.35;58.91;100913.38;5013623;28;20050;-68
2023/08/09 08:02:46;;;;;;;;;;;;;;;26.39;57.44;100917.06;5013830;28;20057;-67
2023/08/09 08:05:15;;;;;;;1.77;1.55;;;;;;;26.29;56.84;100921.31;5013458;28;19922;-67
2023/08/09 08:07:44;;;;;;;2.90;1.63;;;;;;;26.40;58.26;100915.84;5013610;28;20042;-67
2023/08/09 08:10:15;;;;;;;3.13;1.60;;;;;;;26.65;56.46;100920.97;5013617;28;20385;-67
2023/08/09 08:12:45;;;;;;;7.13;1.23;;;;;;;26.49;56.38;100921.19;5013004;28;20053;-67
2023/08/09 08:15:14;;;;;;;2.35;1.35;;;;;;;26.94;57.08;100913.69;5013404;28;20046;-67
2023/08/09 08:17:42;;;;;;;3.28;0.80;;;;;;;26.32;57.21;100928.16;5012898;28;20050;-68
2023/08/09 08:20:15;;;;;;;2.42;0.80;;;;;;;26.43;57.79;100920.69;5013228;28;20053;-67
2023/08/09 08:22:47;;;;;;;1.35;1.00;;;;;;;26.32;58.21;100919.75;5012946;28;20049;-68
2023/08/09 08:25:17;;;;;;;2.15;1.48;;;;;;;26.19;60.00;100922.75;5013166;28;20115;-67
2023/08/09 08:27:47;;;;;;;2.50;1.30;;;;;;;26.45;57.90;100912.72;5012437;28;20061;-67
2023/08/09 08:30:18;;;;;;;2.13;1.10;;;;;;;26.72;57.42;100911.81;5012490;28;20046;-67
2023/08/09 08:32:47;;;;;;;0.85;0.70;;;;;;;26.80;58.18;100902.28;5013147;28;20049;-67
2023/08/09 08:35:20;;;;;;;2.30;1.08;;;;;;;26.78;56.60;100905.47;5012758;28;20054;-68
2023/08/09 08:37:53;;;;;;;2.53;0.77;;;;;;;26.62;56.17;100904.88;5012654;28;20540;-67
2023/08/09 08:40:22;;;;;;;1.35;1.05;;;;;;;26.73;56.33;100896.59;5012722;28;20049;-68
2023/08/09 08:42:51;;;;;;;1.92;0.90;;;;;;;26.75;58.21;100897.81;5012756;28;20497;-67
2023/08/09 08:45:20;;;;;;;3.30;0.88;;;;;;;26.89;55.46;100902.78;5012166;28;20068;-67
2023/08/09 08:47:49;;;;;;;1.75;0.70;;;;;;;27.18;57.68;100907.91;5013170;28;20054;-67
2023/08/09 08:50:17;;;;;;;1.23;0.70;;;;;;;26.69;57.69;100911.38;5013084;28;20053;-67
2023/08/09 08:52:48;;;;;;;1.23;0.95;;;;;;;26.54;58.17;100915.22;5013061;28;20054;-67
2023/08/09 08:55:16;;;;;;;0.80;0.70;;;;;;;26.61;58.85;100903.25;4991706;28;20477;-68
2023/08/09 08:57:46;;;;;;;2.22;0.60;;;;;;;26.45;61.35;100907.09;4993144;28;20494;-67
2023/08/09 09:00:16;;;;;;;2.92;0.80;;;;;;;26.31;61.35;100902.13;4992548;28;20049;-68
2023/08/09 09:02:47;;;;;;;0.95;0.50;;;;;;;26.24;60.43;100902.03;4992980;28;20054;-67
2023/08/09 09:05:16;;;;;;;0.40;0.40;;;;;;;26.49;61.55;100902.31;4992240;28;20065;-67
2023/08/09 09:07:50;;;;;;;1.35;0.43;;;;;;;26.72;60.34;100886.56;4992038;28;20061;-67
2023/08/09 09:10:20;;;;;;;3.70;0.52;;;;;;;26.56;61.49;100894.00;4992214;28;20136;-69
2023/08/09 09:12:56;;;;;;;0.68;0.45;;;;;;;26.42;61.99;100891.84;4992094;28;20069;-68
2023/08/09 09:15:26;;;;;;;0.40;0.40;;;;;;;27.14;58.87;100891.03;4992522;28;20042;-67
2023/08/09 09:17:54;;;;;;;1.65;0.43;;;;;;;26.93;58.89;100886.00;4991930;28;20386;-67
2023/08/09 09:20:29;;;;;;;0.57;0.57;;;;;;;26.70;62.29;100884.91;4991895;28;20064;-67
2023/08/09 09:22:59;;;;;;;2.55;0.45;;;;;;;26.49;60.63;100896.72;4992462;28;20050;-67
2023/08/09 09:25:27;;;;;;;1.48;0.50;;;;;;;26.94;59.23;100888.41;4992658;28;20530;-68
2023/08/09 09:27:56;;;;;;;1.15;0.47;;;;;;;27.59;55.61;100888.19;4991893;28;20078;-68
2023/08/09 09:30:29;;;;;;;2.55;0.60;;;;;;;27.04;59.33;100883.28;4991751;28;20061;-68
2023/08/09 09:32:59;;;;;;;1.40;0.60;;;;;;;26.63;60.33;100879.25;4992680;28;20063;-68
2023/08/09 09:35:31;;;;;;;1.55;0.52;;;;;;;26.82;59.04;100880.22;4992372;28;20513;-68
2023/08/09 09:38:04;;;;;;;2.10;0.70;;;;;;;27.09;58.81;100872.50;4992052;28;20051;-67
2023/08/09 09:40:34;;;;;;;1.45;0.60;;;;;;;27.10;57.81;100868.53;4991969;28;20054;-68
2023/08/09 09:43:04;;;;;;;1.30;0.70;;;;;;;27.06;57.68;100866.84;4992081;28;20058;-67
2023/08/09 09:45:33;;;;;;;0.57;0.40;;;;;;;27.29;55.32;100858.25;4991618;28;20058;-68
2023/08/09 09:48:02;;;;;;;0.70;0.50;;;;;;;27.75;55.89;100871.03;4992223;28;20428;-68
2023/08/09 09:50:31;;;;;;;2.47;0.70;;;;;;;27.65;56.55;100856.91;4992561;28;20054;-69
2023/08/09 09:53:00;;;;;;;1.73;0.60;;;;;;;28.30;57.90;100868.53;4992296;28;20043;-68
2023/08/09 09:55:29;;;;;;;0.82;0.68;;;;;;;28.03;55.62;100866.78;5009491;28;20429;-68
2023/08/09 09:57:58;;;;;;;1.77;0.70;;;;;;;28.20;55.88;100867.22;5011338;28;20054;-68
2023/08/09 10:00:27;;;;;;;3.15;0.70;;;;;;;28.43;54.04;100866.94;5011814;28;20033;-68
2023/08/09 10:02:59;;;;;;;1.70;0.82;;;;;;;28.48;53.14;100864.97;5011557;28;20049;-69
2023/08/09 10:05:35;;;;;;;3.40;0.77;;;;;;;28.07;54.06;100865.97;5011728;28;20042;-69
2023/08/09 10:08:11;;;;;;;3.00;0.60;;;;;;;28.32;55.22;100868.94;5011738;28;20038;-68
2023/08/09 10:10:44;;;;;;;1.20;0.65;;;;;;;27.99;56.88;100859.50;5011208;28;20054;-69
2023/08/09 10:13:24;;;;;;;2.60;0.75;;;;;;;28.15;53.05;100865.59;5011762;28;20497;-68
2023/08/09 10:16:02;;;;;;;1.10;0.63;;;;;;;28.38;54.65;100858.06;5011315;28;20382;-68
2023/08/09 10:18:35;;;;;;;0.82;0.60;;;;;;;28.49;54.77;100846.88;5011572;28;20054;-69
2023/08/09 10:21:06;;;;;;;3.88;0.80;;;;;;;28.51;52.82;100856.53;5011580;28;20046;-69
2023/08/09 10:23:35;;;;;;;1.25;0.47;;;;;;;28.75;53.00;100847.72;4994436;28;20050;-68
2023/08/09 10:26:03;;;;;;;2.22;0.50;;;;;;;28.34;51.42;100849.63;5015269;28;20058;-68
2023/08/09 10:28:49;;;;;;;1.40;0.60;;;;;;;28.74;54.78;100843.28;5015244;28;20493;-68
2023/08/09 10:31:49;;;;;;;1.83;0.70;;;;;;;28.89;51.64;100833.69;5014533;28;20507;-68
2023/08/09 10:34:20;;;;;;;2.40;0.60;;;;;;;28.69;50.86;100833.25;5015315;28;20065;-69
2023/08/09 10:36:50;;;;;;;2.58;0.70;;;;;;;29.01;51.64;100837.31;5014807;28;20054;-68
2023/08/09 10:39:21;;;;;;;2.33;0.88;;;;;;;28.71;51.17;100833.63;5014789;28;20070;-68
2023/08/09 10:42:00;;;;;;;1.67;0.52;;;;;;;29.11;50.42;100836.50;5014670;28;20049;-68
2023/08/09 10:44:43;;;;;;;1.27;0.57;;;;;;;29.64;50.22;100834.06;5015056;28;20393;-68
2023/08/09 10:47:21;;;;;;;1.95;0.50;;;;;;;29.85;50.67;100833.19;5014991;28;20045;-68
2023/08/09 10:49:49;;;;;;;2.03;0.50;;;;;;;29.99;47.69;100837.16;5015098;28;20053;-69
2023/08/09 10:52:28;;;;;;;2.28;0.80;;;;;;;30.23;46.74;100827.03;4997238;28;20042;-68
2023/08/09 10:55:26;;;;;;;2.45;0.90;;;;;;;29.69;44.89;100822.38;5014364;28;20073;-69
2023/08/09 10:57:56;;;;;;;2.70;0.70;;;;;;;29.79;48.69;100823.53;4995723;28;20505;-68
2023/08/09 11:00:26;;;;;;;0.77;0.55;;;;;;;30.03;47.48;100818.22;5014317;28;20050;-67
2023/08/09 11:02:57;;;;;;;2.58;0.82;;;;;;;29.51;48.23;100813.94;5014093;28;20058;-68
2023/08/09 11:05:29;;;;;;;2.15;0.68;;;;;;;29.14;46.39;100807.53;5014142;28;20046;-68
2023/08/09 11:07:59;;;;;;;1.23;0.70;;;;;;;29.49;48.03;100800.28;5014666;28;20042;-68
2023/08/09 11:10:34;;;;;;;1.55;0.73;;;;;;;30.31;47.15;100808.81;5014606;28;20038;-68
2023/08/09 11:13:08;;;;;;;2.17;0.68;;;;;;;30.36;45.81;100803.97;5014580;28;20048;-68
2023/08/09 11:15:37;;;;;;;1.38;0.50;;;;;;;30.39;48.18;100791.88;5014105;28;20050;-69
2023/08/09 11:18:06;;;;;;;1.50;0.95;;;;;;;30.38;48.19;100802.34;5014487;28;20417;-69
2023/08/09 11:20:34;;;;;;;4.65;0.55;;;;;;;31.04;47.21;100801.88;5013619;28;20058;-68
2023/08/09 11:23:04;;;;;;;4.32;0.93;;;;;;;30.41;47.70;100812.00;5014120;28;20050;-68
2023/08/09 11:25:33;;;;;;;0.50;0.50;;;;;;;30.76;45.34;100793.25;5013742;28;20607;-68
2023/08/09 11:28:04;;;;;;;1.35;0.85;;;;;;;30.60;45.39;100790.91;5014154;28;20401;-69
2023/08/09 11:30:33;;;;;;;1.17;0.85;;;;;;;29.96;44.96;100790.81;5014327;28;20046;-69
2023/08/09 11:33:04;;;;;;;0.95;0.60;;;;;;;30.40;47.65;100791.44;5013717;28;20413;-69
2023/08/09 11:35:39;;;;;;;0.85;0.45;;;;;;;30.84;45.99;100780.66;5013747;28;20069;-68
2023/08/09 11:38:11;;;;;;;0.80;0.80;;;;;;;31.01;42.05;100775.28;5013543;28;20054;-69